createdAt,value
2023-05-19T00:01:16.961Z,2.37
2023-05-19T00:03:57.644Z,2.20
2023-05-19T00:06:29.274Z,2.30
2023-05-19T00:08:59.078Z,2.37
2023-05-19T00:11:27.651Z,2.00
2023-05-19T00:13:58.280Z,2.17
2023-05-19T00:16:27.427Z,2.47
2023-05-19T00:18:54.538Z,2.20
2023-05-19T00:21:21.522Z,1.90
2023-05-19T00:23:48.503Z,2.63
2023-05-19T00:26:15.640Z,2.93
2023-05-19T00:28:42.586Z,1.90
2023-05-19T00:31:09.765Z,2.40
2023-05-19T00:33:36.678Z,2.20
2023-05-19T00:36:04.564Z,2.20
2023-05-19T00:38:33.700Z,4.43
2023-05-19T00:41:02.767Z,2.67
2023-05-19T00:43:34.294Z,1.80
2023-05-19T00:46:01.234Z,2.53
2023-05-19T00:48:28.167Z,2.40
2023-05-19T00:51:02.238Z,1.97
2023-05-19T00:53:30.978Z,1.70
2023-05-19T00:55:58.821Z,2.13
2023-05-19T00:58:29.315Z,1.73
2023-05-19T01:01:04.427Z,2.30
2023-05-19T01:03:35.023Z,2.20
2023-05-19T01:06:05.914Z,2.43
2023-05-19T01:08:34.788Z,1.93
2023-05-19T01:11:02.049Z,2.20
2023-05-19T01:13:29.716Z,2.27
2023-05-19T01:16:14.579Z,2.47
2023-05-19T01:19:30.752Z,2.40
2023-05-19T01:22:12.909Z,1.80
2023-05-19T01:25:26.687Z,2.40
2023-05-19T01:28:16.589Z,2.20
2023-05-19T01:30:45.732Z,2.77
2023-05-19T01:33:15.368Z,1.93
2023-05-19T01:35:43.738Z,2.00
2023-05-19T01:38:12.849Z,1.80
2023-05-19T01:40:41.997Z,1.60
2023-05-19T01:43:14.733Z,2.17
2023-05-19T01:45:42.800Z,2.17
2023-05-19T01:48:11.292Z,3.00
2023-05-19T01:50:39.176Z,2.37
2023-05-19T01:53:06.345Z,2.23
2023-05-19T01:55:35.339Z,1.37
2023-05-19T01:58:39.786Z,2.17
2023-05-19T02:01:20.006Z,1.67
2023-05-19T02:04:28.118Z,2.10
2023-05-19T02:07:09.977Z,1.80
2023-05-19T02:09:53.445Z,2.27
2023-05-19T02:12:36.006Z,2.47
2023-05-19T02:15:22.208Z,1.43
2023-05-19T02:17:54.365Z,1.80
2023-05-19T02:20:24.452Z,2.10
2023-05-19T02:22:51.424Z,1.67
2023-05-19T02:25:18.458Z,2.10
2023-05-19T02:27:45.704Z,2.60
2023-05-19T02:30:12.785Z,1.93
2023-05-19T02:32:39.880Z,1.90
2023-05-19T02:35:07.285Z,1.67
2023-05-19T02:37:35.321Z,1.60
2023-05-19T02:40:02.286Z,2.07
2023-05-19T02:42:29.219Z,1.70
2023-05-19T02:44:56.112Z,2.57
2023-05-19T02:47:23.083Z,2.13
2023-05-19T02:49:50.104Z,1.73
2023-05-19T02:52:17.054Z,2.70
2023-05-19T02:54:43.962Z,1.83
2023-05-19T02:57:11.187Z,2.17
2023-05-19T02:59:38.182Z,2.10
2023-05-19T03:02:05.259Z,2.10
2023-05-19T03:04:32.268Z,2.17
2023-05-19T03:06:59.246Z,2.33
2023-05-19T03:09:26.402Z,3.40
2023-05-19T03:11:53.371Z,2.47
2023-05-19T03:14:23.794Z,1.80
2023-05-19T03:16:51.097Z,2.63
2023-05-19T03:19:18.222Z,2.20
2023-05-19T03:21:45.394Z,1.67
2023-05-19T03:24:12.373Z,2.17
2023-05-19T03:26:39.384Z,1.93
2023-05-19T03:29:06.450Z,2.07
2023-05-19T03:31:33.798Z,2.27
2023-05-19T03:34:00.956Z,2.77
2023-05-19T03:36:32.093Z,2.20
2023-05-19T03:38:59.640Z,2.33
2023-05-19T03:41:26.596Z,2.30
2023-05-19T03:43:53.502Z,1.77
2023-05-19T03:46:20.668Z,2.47
2023-05-19T03:48:47.821Z,2.50
2023-05-19T03:51:14.775Z,2.10
2023-05-19T03:53:41.676Z,2.10
2023-05-19T03:56:11.617Z,2.17
2023-05-19T03:58:40.735Z,1.93
2023-05-19T04:01:07.718Z,1.80
2023-05-19T04:03:34.672Z,2.43
2023-05-19T04:06:01.614Z,2.13
2023-05-19T04:08:28.520Z,2.07
2023-05-19T04:10:55.414Z,3.03
2023-05-19T04:13:22.421Z,2.63
2023-05-19T04:15:49.572Z,2.13
2023-05-19T04:18:16.500Z,2.00
2023-05-19T04:20:43.410Z,2.33
2023-05-19T04:23:10.511Z,3.00
2023-05-19T04:25:38.119Z,2.53
2023-05-19T04:28:05.138Z,2.40
2023-05-19T04:30:32.389Z,2.20
2023-05-19T04:33:01.104Z,2.20
2023-05-19T04:35:28.108Z,2.73
2023-05-19T04:37:55.621Z,2.30
2023-05-19T04:40:23.833Z,2.03
2023-05-19T04:42:52.355Z,2.37
2023-05-19T04:45:19.728Z,2.17
2023-05-19T04:47:49.202Z,2.20
2023-05-19T04:50:16.903Z,2.27
2023-05-19T04:52:45.629Z,2.60
2023-05-19T04:55:13.359Z,2.20
2023-05-19T04:57:40.663Z,2.67
2023-05-19T05:00:12.186Z,2.30
2023-05-19T05:02:39.149Z,2.40
2023-05-19T05:05:07.022Z,2.33
2023-05-19T05:07:33.888Z,2.90
2023-05-19T05:10:01.282Z,1.90
2023-05-19T05:12:28.490Z,2.50
2023-05-19T05:14:55.948Z,2.83
2023-05-19T05:17:23.281Z,3.40
2023-05-19T05:19:50.674Z,2.50
2023-05-19T05:22:18.364Z,2.47
2023-05-19T05:24:46.059Z,2.83
2023-05-19T05:27:13.666Z,3.20
2023-05-19T05:29:40.589Z,2.27
2023-05-19T05:32:08.049Z,2.67
2023-05-19T05:34:35.992Z,2.70
2023-05-19T05:37:02.911Z,3.10
2023-05-19T05:39:30.017Z,2.77
2023-05-19T05:41:56.926Z,2.50
2023-05-19T05:44:23.888Z,2.50
2023-05-19T05:46:51.378Z,2.10
2023-05-19T05:49:18.761Z,2.50
2023-05-19T05:51:54.637Z,2.47
2023-05-19T05:54:32.127Z,3.03
2023-05-19T05:56:59.457Z,2.70
2023-05-19T05:59:26.337Z,2.20
2023-05-19T06:01:53.336Z,2.07
2023-05-19T06:04:21.202Z,2.37
2023-05-19T06:06:49.531Z,2.40
2023-05-19T06:09:16.614Z,2.27
2023-05-19T06:11:43.580Z,2.53
2023-05-19T06:14:10.553Z,2.83
2023-05-19T06:16:37.623Z,2.60
2023-05-19T06:19:04.848Z,3.13
2023-05-19T06:21:31.871Z,2.53
2023-05-19T06:23:58.849Z,2.57
2023-05-19T06:26:26.565Z,2.40
2023-05-19T06:28:53.556Z,2.67
2023-05-19T06:31:20.748Z,2.33
2023-05-19T06:33:47.783Z,2.30
2023-05-19T06:36:14.721Z,2.23
2023-05-19T06:38:41.599Z,2.33
2023-05-19T06:41:08.528Z,2.10
2023-05-19T06:43:35.552Z,3.30
2023-05-19T06:46:02.852Z,2.93
2023-05-19T06:48:30.476Z,2.40
2023-05-19T06:50:57.404Z,2.10
2023-05-19T06:53:24.355Z,2.43
2023-05-19T06:55:59.566Z,3.20
2023-05-19T06:58:27.785Z,2.50
2023-05-19T07:00:54.814Z,3.43
2023-05-19T07:03:21.845Z,2.70
2023-05-19T07:05:48.974Z,2.80
2023-05-19T07:08:15.913Z,2.30
2023-05-19T07:10:42.852Z,2.50
2023-05-19T07:13:09.755Z,2.70
2023-05-19T07:15:36.668Z,2.30
2023-05-19T07:18:03.783Z,2.83
2023-05-19T07:20:31.186Z,2.47
2023-05-19T07:22:58.298Z,2.00
2023-05-19T07:25:27.095Z,2.60
2023-05-19T07:27:54.019Z,1.83
2023-05-19T07:30:21.192Z,2.87
2023-05-19T07:32:48.232Z,2.33
2023-05-19T07:35:15.252Z,2.17
2023-05-19T07:37:42.273Z,2.50
2023-05-19T07:40:09.481Z,2.63
2023-05-19T07:42:36.355Z,2.57
2023-05-19T07:45:03.671Z,2.70
2023-05-19T07:47:31.246Z,2.37
2023-05-19T07:49:58.309Z,2.60
2023-05-19T07:52:25.352Z,2.37
2023-05-19T07:54:53.076Z,2.53
2023-05-19T07:57:20.045Z,2.63
2023-05-19T07:59:46.980Z,2.80
2023-05-19T08:02:13.963Z,2.90
2023-05-19T08:04:41.083Z,1.97
2023-05-19T08:07:08.063Z,2.30
2023-05-19T08:09:34.986Z,2.10
2023-05-19T08:12:02.058Z,2.37
2023-05-19T08:14:28.985Z,1.90
2023-05-19T08:16:56.336Z,2.20
2023-05-19T08:19:23.431Z,2.43
2023-05-19T08:21:50.443Z,2.07
2023-05-19T08:24:17.441Z,2.47
2023-05-19T08:26:44.693Z,1.87
2023-05-19T08:29:11.572Z,1.90
2023-05-19T08:31:38.549Z,2.20
2023-05-19T08:34:05.559Z,1.50
2023-05-19T08:36:33.931Z,1.67
2023-05-19T08:39:00.892Z,1.93
2023-05-19T08:41:27.780Z,2.20
2023-05-19T08:43:55.126Z,2.60
2023-05-19T08:46:25.176Z,1.77
2023-05-19T08:48:59.215Z,2.10
2023-05-19T08:52:01.391Z,1.83
2023-05-19T08:54:38.482Z,2.17
2023-05-19T08:57:06.414Z,1.47
2023-05-19T08:59:33.861Z,1.70
2023-05-19T09:02:01.416Z,2.10
2023-05-19T09:04:29.918Z,1.50
2023-05-19T09:06:58.835Z,2.27
2023-05-19T09:09:26.004Z,2.27
2023-05-19T09:11:53.348Z,1.87
2023-05-19T09:14:20.232Z,1.73
2023-05-19T09:16:50.964Z,1.83
2023-05-19T09:19:18.154Z,2.30
2023-05-19T09:21:45.790Z,1.60
2023-05-19T09:24:12.868Z,1.50
2023-05-19T09:26:42.807Z,1.40
2023-05-19T09:29:14.001Z,1.63
2023-05-19T09:31:51.592Z,2.13
2023-05-19T09:34:19.541Z,1.30
2023-05-19T09:36:49.966Z,1.10
2023-05-19T09:39:18.487Z,0.77
2023-05-19T09:41:46.091Z,1.33
2023-05-19T09:44:24.057Z,1.03
2023-05-19T09:46:52.745Z,1.20
2023-05-19T09:49:25.283Z,1.30
2023-05-19T09:51:56.763Z,1.67
2023-05-19T09:54:25.011Z,1.13
2023-05-19T09:57:08.143Z,1.17
2023-05-19T09:59:37.026Z,0.80
2023-05-19T10:02:04.388Z,1.00
2023-05-19T10:04:31.637Z,1.30
2023-05-19T10:07:01.543Z,1.47
2023-05-19T10:09:30.062Z,1.63
2023-05-19T10:11:58.818Z,1.30
2023-05-19T10:14:29.897Z,0.90
2023-05-19T10:17:00.050Z,1.40
2023-05-19T10:19:29.222Z,1.50
2023-05-19T10:21:57.206Z,1.30
2023-05-19T10:24:24.186Z,1.43
2023-05-19T10:26:57.840Z,1.30
2023-05-19T10:29:36.505Z,1.53
2023-05-19T10:32:11.681Z,1.57
2023-05-19T10:35:07.511Z,1.57
2023-05-19T10:38:07.614Z,1.23
2023-05-19T10:40:54.739Z,1.57
2023-05-19T10:43:57.029Z,1.17
2023-05-19T10:46:29.094Z,1.50
2023-05-19T10:48:56.148Z,1.50
2023-05-19T10:51:32.137Z,1.10
2023-05-19T10:54:02.752Z,2.13
2023-05-19T10:56:36.149Z,1.20
2023-05-19T10:59:03.981Z,1.17
2023-05-19T11:01:36.039Z,1.10
2023-05-19T11:04:13.955Z,2.03
2023-05-19T11:06:41.389Z,1.47
2023-05-19T11:09:16.635Z,1.20
2023-05-19T11:11:52.838Z,1.03
2023-05-19T11:14:26.949Z,1.27
2023-05-19T11:16:59.779Z,1.03
2023-05-19T11:19:30.331Z,0.90
2023-05-19T11:22:08.333Z,1.43
2023-05-19T11:24:40.220Z,1.60
2023-05-19T11:27:27.794Z,1.57
2023-05-19T11:29:57.233Z,1.40
2023-05-19T11:32:31.128Z,1.33
2023-05-19T11:34:58.465Z,1.40
2023-05-19T11:37:26.008Z,1.50
2023-05-19T11:39:53.367Z,1.37
2023-05-19T11:42:20.647Z,2.03
2023-05-19T11:44:47.560Z,1.27
2023-05-19T11:47:15.758Z,1.23
2023-05-19T11:49:48.599Z,1.80
2023-05-19T11:52:16.020Z,1.47
2023-05-19T11:54:43.023Z,1.37
2023-05-19T11:57:11.107Z,1.30
2023-05-19T11:59:41.090Z,1.47
2023-05-19T12:02:25.898Z,1.87
2023-05-19T12:04:54.054Z,1.20
2023-05-19T12:07:24.566Z,1.30
2023-05-19T12:09:52.311Z,2.37
2023-05-19T12:12:21.062Z,1.33
2023-05-19T12:14:50.685Z,1.57
2023-05-19T12:17:20.411Z,1.07
2023-05-19T12:19:49.564Z,1.23
2023-05-19T12:22:18.162Z,1.40
2023-05-19T12:24:46.330Z,1.67
2023-05-19T12:27:26.497Z,1.60
2023-05-19T12:29:57.148Z,1.57
2023-05-19T12:32:25.948Z,1.40
2023-05-19T12:34:56.685Z,1.70
2023-05-19T12:37:27.714Z,1.40
2023-05-19T12:39:57.182Z,1.60
2023-05-19T12:42:31.055Z,1.53
2023-05-19T12:45:01.559Z,1.37
2023-05-19T12:47:35.251Z,1.90
2023-05-19T12:50:08.449Z,1.67
2023-05-19T12:52:48.506Z,1.77
2023-05-19T12:55:16.692Z,1.33
2023-05-19T12:57:56.873Z,1.30
2023-05-19T13:00:28.222Z,1.60
2023-05-19T13:03:10.253Z,2.03
2023-05-19T13:05:43.694Z,1.50
2023-05-19T13:08:21.717Z,1.60
2023-05-19T13:10:49.672Z,1.87
2023-05-19T13:13:17.666Z,2.67
2023-05-19T13:15:48.670Z,1.80
2023-05-19T13:18:16.462Z,1.40
2023-05-19T13:20:45.079Z,2.00
2023-05-19T13:23:13.154Z,2.03
2023-05-19T13:25:41.117Z,1.67
2023-05-19T13:28:08.165Z,1.63
2023-05-19T13:30:39.012Z,1.77
2023-05-19T13:33:06.565Z,1.50
2023-05-19T13:35:39.481Z,1.90
2023-05-19T13:38:09.617Z,3.67
2023-05-19T13:40:37.044Z,1.70
2023-05-19T13:43:04.677Z,1.77
2023-05-19T13:45:31.713Z,1.50
2023-05-19T13:47:58.769Z,1.60
2023-05-19T13:50:26.410Z,2.00
2023-05-19T13:52:53.912Z,1.80
2023-05-19T13:55:21.124Z,1.87
2023-05-19T13:57:48.074Z,1.57
2023-05-19T14:00:15.739Z,2.17
2023-05-19T14:02:43.057Z,2.03
2023-05-19T14:05:10.555Z,2.30
2023-05-19T14:07:37.515Z,1.50
2023-05-19T14:10:08.267Z,2.10
2023-05-19T14:12:49.451Z,1.60
2023-05-19T14:15:23.790Z,1.87
2023-05-19T14:17:50.896Z,1.50
2023-05-19T14:20:17.911Z,1.90
2023-05-19T14:22:44.900Z,1.70
2023-05-19T14:25:11.838Z,1.83
2023-05-19T14:27:40.052Z,2.17
2023-05-19T14:30:08.429Z,2.00
2023-05-19T14:32:35.939Z,1.80
2023-05-19T14:35:03.395Z,2.30
2023-05-19T14:37:31.879Z,1.77
2023-05-19T14:39:59.367Z,1.60
2023-05-19T14:42:26.377Z,1.43
2023-05-19T14:44:53.381Z,1.90
2023-05-19T14:47:20.289Z,1.40
2023-05-19T14:49:47.405Z,1.70
2023-05-19T14:52:14.290Z,1.93
2023-05-19T14:54:41.200Z,2.00
2023-05-19T14:57:08.220Z,2.10
2023-05-19T14:59:38.114Z,1.43
2023-05-19T15:02:05.632Z,2.20
2023-05-19T15:04:32.580Z,1.70
2023-05-19T15:07:09.644Z,2.00
2023-05-19T15:09:37.661Z,1.50
2023-05-19T15:12:04.826Z,1.70
2023-05-19T15:14:31.895Z,1.87
2023-05-19T15:16:59.270Z,1.60
2023-05-19T15:19:26.642Z,2.13
2023-05-19T15:21:53.898Z,1.70
2023-05-19T15:24:20.905Z,2.00
2023-05-19T15:26:48.162Z,1.60
2023-05-19T15:29:15.141Z,1.80
2023-05-19T15:31:42.232Z,1.90
2023-05-19T15:34:10.325Z,2.50
2023-05-19T15:36:37.247Z,2.00
2023-05-19T15:39:05.046Z,1.77
2023-05-19T15:41:31.988Z,1.37
2023-05-19T15:44:00.580Z,2.00
2023-05-19T15:46:28.145Z,1.67
2023-05-19T15:48:55.561Z,1.93
2023-05-19T15:51:22.803Z,1.73
2023-05-19T15:53:49.773Z,1.70
2023-05-19T15:56:17.044Z,2.33
2023-05-19T15:58:43.984Z,1.80
2023-05-19T16:01:11.440Z,2.80
2023-05-19T16:03:38.453Z,2.13
2023-05-19T16:06:05.488Z,1.60
2023-05-19T16:08:32.432Z,2.20
2023-05-19T16:10:59.496Z,1.90
2023-05-19T16:13:26.626Z,1.57
2023-05-19T16:15:53.666Z,1.70
2023-05-19T16:18:20.685Z,1.67
2023-05-19T16:20:47.657Z,1.90
2023-05-19T16:23:14.615Z,2.40
2023-05-19T16:25:41.712Z,2.00
2023-05-19T16:28:08.853Z,2.07
2023-05-19T16:30:36.123Z,2.60
2023-05-19T16:33:03.357Z,3.57
2023-05-19T16:35:30.961Z,1.70
2023-05-19T16:37:58.129Z,1.90
2023-05-19T16:40:25.632Z,2.20
2023-05-19T16:42:55.791Z,2.60
2023-05-19T16:45:22.753Z,2.07
2023-05-19T16:47:49.761Z,2.10
2023-05-19T16:50:16.747Z,2.23
2023-05-19T16:52:43.763Z,1.77
2023-05-19T16:55:11.161Z,2.30
2023-05-19T16:57:38.102Z,2.40
2023-05-19T17:00:05.626Z,2.50
2023-05-19T17:02:32.661Z,2.27
2023-05-19T17:04:59.758Z,2.87
2023-05-19T17:07:29.040Z,2.50
2023-05-19T17:09:56.213Z,2.43
2023-05-19T17:12:23.416Z,2.20
2023-05-19T17:14:52.050Z,2.13
2023-05-19T17:17:19.203Z,2.37
2023-05-19T17:19:46.764Z,2.20
2023-05-19T17:22:13.717Z,2.20
2023-05-19T17:24:41.203Z,2.00
2023-05-19T17:27:08.301Z,3.43
2023-05-19T17:29:35.383Z,2.33
2023-05-19T17:32:04.364Z,2.30
2023-05-19T17:34:31.365Z,2.67
2023-05-19T17:36:58.251Z,3.60
2023-05-19T17:39:25.574Z,2.17
2023-05-19T17:41:52.494Z,2.40
2023-05-19T17:44:19.385Z,2.23
2023-05-19T17:46:46.419Z,3.40
2023-05-19T17:49:13.928Z,2.43
2023-05-19T17:51:41.319Z,2.80
2023-05-19T17:54:08.739Z,2.40
2023-05-19T17:56:44.640Z,2.10
2023-05-19T17:59:12.121Z,2.93
2023-05-19T18:01:40.782Z,2.50
2023-05-19T18:04:08.687Z,2.50
2023-05-19T18:06:38.593Z,2.13
2023-05-19T18:09:08.986Z,2.70
2023-05-19T18:11:36.606Z,2.90
2023-05-19T18:14:04.076Z,2.80
2023-05-19T18:16:31.140Z,3.10
2023-05-19T18:18:58.177Z,2.83
2023-05-19T18:21:25.295Z,2.93
2023-05-19T18:23:52.283Z,3.10
2023-05-19T18:26:19.217Z,2.33
2023-05-19T18:28:46.168Z,2.60
2023-05-19T18:31:19.885Z,2.90
2023-05-19T18:33:47.314Z,2.30
2023-05-19T18:36:16.488Z,2.80
2023-05-19T18:38:43.478Z,2.70
2023-05-19T18:41:10.509Z,3.03
2023-05-19T18:43:37.472Z,3.67
2023-05-19T18:46:04.450Z,2.57
2023-05-19T18:48:33.084Z,2.17
2023-05-19T18:51:00.245Z,2.20
2023-05-19T18:53:27.225Z,2.73
2023-05-19T18:55:54.150Z,2.90
2023-05-19T18:58:21.585Z,3.00
2023-05-19T19:00:48.594Z,2.90
2023-05-19T19:03:15.911Z,2.70
2023-05-19T19:05:44.005Z,2.33
2023-05-19T19:08:10.998Z,2.80
2023-05-19T19:10:40.616Z,2.70
2023-05-19T19:13:07.617Z,2.10
2023-05-19T19:15:34.612Z,2.57
2023-05-19T19:18:02.177Z,2.50
2023-05-19T19:20:29.468Z,2.70
2023-05-19T19:22:56.825Z,2.70
2023-05-19T19:25:23.891Z,2.80
2023-05-19T19:27:51.195Z,2.83
2023-05-19T19:30:18.264Z,2.80
2023-05-19T19:32:45.444Z,2.50
2023-05-19T19:35:12.554Z,3.60
2023-05-19T19:37:39.510Z,2.33
2023-05-19T19:40:07.385Z,2.53
2023-05-19T19:42:34.563Z,3.53
2023-05-19T19:45:01.713Z,3.20
2023-05-19T19:47:28.762Z,3.07
2023-05-19T19:49:56.097Z,3.03
2023-05-19T19:52:23.105Z,3.40
2023-05-19T19:54:50.157Z,3.50
2023-05-19T19:57:17.392Z,2.73
2023-05-19T19:59:44.668Z,3.00
2023-05-19T20:02:11.785Z,2.60
2023-05-19T20:04:39.059Z,4.23
2023-05-19T20:07:06.185Z,2.97
2023-05-19T20:09:33.190Z,3.30
2023-05-19T20:12:00.218Z,3.00
2023-05-19T20:14:27.296Z,2.93
2023-05-19T20:16:54.236Z,3.20
2023-05-19T20:19:21.442Z,2.87
2023-05-19T20:21:48.616Z,2.50
2023-05-19T20:24:15.632Z,3.10
2023-05-19T20:26:42.603Z,3.03
2023-05-19T20:29:09.565Z,3.00
2023-05-19T20:31:36.689Z,3.07
2023-05-19T20:34:03.657Z,4.60
2023-05-19T20:36:31.068Z,3.70
2023-05-19T20:38:58.302Z,3.15
2023-05-19T20:41:25.199Z,3.50
2023-05-19T20:43:52.227Z,2.90
2023-05-19T20:46:19.200Z,3.20
2023-05-19T20:48:46.313Z,3.20
2023-05-19T20:51:13.269Z,3.00
2023-05-19T20:53:40.312Z,2.63
2023-05-19T20:56:10.348Z,3.27
2023-05-19T20:58:37.746Z,3.30
2023-05-19T21:01:05.106Z,4.23
2023-05-19T21:03:32.180Z,3.13
2023-05-19T21:05:59.127Z,3.60
2023-05-19T21:08:26.341Z,3.60
2023-05-19T21:10:53.311Z,3.17
2023-05-19T21:13:20.567Z,3.47
2023-05-19T21:15:47.540Z,3.70
2023-05-19T21:18:14.515Z,2.70
2023-05-19T21:20:41.478Z,3.47
2023-05-19T21:23:08.452Z,3.10
2023-05-19T21:25:35.726Z,3.07
2023-05-19T21:28:03.321Z,3.10
2023-05-19T21:30:30.291Z,3.17
2023-05-19T21:32:57.379Z,3.80
2023-05-19T21:35:24.440Z,3.50
2023-05-19T21:37:51.406Z,3.10
2023-05-19T21:40:18.431Z,4.10
2023-05-19T21:42:46.021Z,3.53
2023-05-19T21:45:13.042Z,3.60
2023-05-19T21:47:39.989Z,3.03
2023-05-19T21:50:08.056Z,3.87
2023-05-19T21:52:36.354Z,3.50
2023-05-19T21:55:03.420Z,3.90
2023-05-19T21:57:30.384Z,3.87
2023-05-19T21:59:57.324Z,3.00
2023-05-19T22:02:24.347Z,3.20
2023-05-19T22:04:51.270Z,4.07
2023-05-19T22:07:18.173Z,2.93
2023-05-19T22:09:46.854Z,3.10
2023-05-19T22:12:15.121Z,3.60
2023-05-19T22:14:42.013Z,3.13
2023-05-19T22:17:08.926Z,3.50
2023-05-19T22:19:35.961Z,3.33
2023-05-19T22:22:13.070Z,3.70
2023-05-19T22:24:41.340Z,3.97
2023-05-19T22:27:08.688Z,3.23
2023-05-19T22:29:38.429Z,3.93
2023-05-19T22:32:09.289Z,3.67
2023-05-19T22:34:36.286Z,3.27
2023-05-19T22:37:03.267Z,3.57
2023-05-19T22:39:30.160Z,3.20
2023-05-19T22:41:57.079Z,3.90
2023-05-19T22:44:24.030Z,3.43
2023-05-19T22:46:50.947Z,4.30
2023-05-19T22:49:17.841Z,4.23
2023-05-19T22:51:44.782Z,3.57
2023-05-19T22:54:12.512Z,3.53
2023-05-19T22:56:39.486Z,3.70
2023-05-19T22:59:06.428Z,3.43
2023-05-19T23:01:33.418Z,3.87
2023-05-19T23:04:00.403Z,3.60
2023-05-19T23:06:27.377Z,3.87
2023-05-19T23:09:04.554Z,3.00
2023-05-19T23:11:31.511Z,3.20
2023-05-19T23:13:58.523Z,4.07
2023-05-19T23:16:26.115Z,3.23
2023-05-19T23:18:53.303Z,3.40
2023-05-19T23:21:20.545Z,3.83
2023-05-19T23:23:47.587Z,3.17
2023-05-19T23:26:14.863Z,4.07
2023-05-19T23:28:43.224Z,3.50
2023-05-19T23:31:10.718Z,2.97
2023-05-19T23:33:37.960Z,3.00
2023-05-19T23:36:09.902Z,3.80
2023-05-19T23:38:37.764Z,3.67
2023-05-19T23:41:05.722Z,4.10
2023-05-19T23:43:33.105Z,3.60
2023-05-19T23:46:01.072Z,3.50
2023-05-19T23:48:29.692Z,3.37
2023-05-19T23:50:58.680Z,2.97
2023-05-19T23:53:25.900Z,4.93
2023-05-19T23:55:52.848Z,3.60
2023-05-19T23:58:19.829Z,3.23
